Time;durP1;ratioP1;P1;durP2;ratioP2;P2;SDS_P1;SDS_P2;PMS_P1;PMS_P2;Temp;Humidity;BMP_temperature;BMP_pressure;BME280_temperature;BME280_humidity;BME280_pressure;Samples;Min_cycle;Max_cycle;Signal;HPM_P1;HPM_P2
2022/05/12 00:01:30;;;;;;;13.83;6.00;;;14.70;99.90;;;;;;5012887;28;20938;-59
2022/05/12 00:03:57;;;;;;;8.77;5.00;;;14.60;99.90;;;;;;5012906;28;20469;-61
2022/05/12 00:06:24;;;;;;;10.77;6.17;;;14.60;99.90;;;;;;5013685;28;20463;-61
2022/05/12 00:08:51;;;;;;;14.87;6.33;;;14.40;99.90;;;;;;5013563;28;20460;-60
2022/05/12 00:11:20;;;;;;;12.50;6.17;;;14.20;99.90;;;;;;5013586;28;20825;-60
2022/05/12 00:13:47;;;;;;;9.50;6.33;;;14.10;99.90;;;;;;5013006;28;20493;-60
2022/05/12 00:16:14;;;;;;;11.23;6.43;;;13.90;99.90;;;;;;5013538;28;20446;-60
2022/05/12 00:18:41;;;;;;;15.10;6.70;;;13.90;99.90;;;;;;5013585;28;20450;-61
2022/05/12 00:21:08;;;;;;;16.77;7.00;;;13.80;99.90;;;;;;5013325;28;20445;-61
2022/05/12 00:23:35;;;;;;;12.67;7.60;;;13.70;99.90;;;;;;5013424;28;20492;-61
2022/05/12 00:26:02;;;;;;;21.33;6.30;;;13.70;99.90;;;;;;5016710;28;20449;-60
2022/05/12 00:28:31;;;;;;;14.17;5.50;;;13.60;99.90;;;;;;5017178;28;20442;-60
2022/05/12 00:30:59;;;;;;;9.47;5.33;;;13.60;99.90;;;;;;5016920;28;20452;-60
2022/05/12 00:33:28;;;;;;;10.63;5.80;;;13.60;99.90;;;;;;5017144;28;20492;-60
2022/05/12 00:35:56;;;;;;;10.90;6.83;;;13.60;99.90;;;;;;5017350;28;20555;-60
2022/05/12 00:38:23;;;;;;;15.20;6.33;;;13.60;99.90;;;;;;5017238;28;20552;-60
2022/05/12 00:40:50;;;;;;;10.47;6.73;;;13.70;99.90;;;;;;5017097;28;20450;-61
2022/05/12 00:43:42;;;;;;;16.90;7.30;;;13.70;99.90;;;;;;5016590;28;20491;-60
2022/05/12 00:46:12;;;;;;;10.60;6.83;;;13.80;99.90;;;;;;5014315;28;20464;-60
2022/05/12 00:48:39;;;;;;;11.70;6.97;;;13.80;99.90;;;;;;5016790;28;20449;-59
2022/05/12 00:51:08;;;;;;;17.23;7.53;;;13.80;99.90;;;;;;5016951;28;20453;-59
2022/05/12 00:53:36;;;;;;;14.07;7.77;;;13.80;99.90;;;;;;5016471;28;20466;-59
2022/05/12 00:56:06;;;;;;;13.00;7.30;;;13.80;99.90;;;;;;5016922;28;20769;-60
2022/05/12 00:58:34;;;;;;;12.30;6.90;;;13.90;99.90;;;;;;5016607;28;20448;-60
2022/05/12 01:01:07;;;;;;;10.63;7.40;;;13.90;99.90;;;;;;5016849;28;20461;-60
2022/05/12 01:03:34;;;;;;;10.40;6.53;;;13.90;99.90;;;;;;5016654;28;20461;-60
2022/05/12 01:06:03;;;;;;;11.27;7.37;;;13.90;99.90;;;;;;5016259;28;20449;-60
2022/05/12 01:08:31;;;;;;;10.60;7.20;;;13.90;99.90;;;;;;5017048;28;20820;-60
2022/05/12 01:11:01;;;;;;;10.80;6.27;;;13.90;99.90;;;;;;5016234;28;20457;-60
2022/05/12 01:13:29;;;;;;;8.70;6.10;;;13.90;99.90;;;;;;5016382;28;20473;-60
2022/05/12 01:16:01;;;;;;;11.73;6.30;;;14.00;99.90;;;;;;5016477;28;20848;-60
2022/05/12 01:18:32;;;;;;;5.50;4.73;;;14.00;99.90;;;;;;5016364;28;20445;-60
2022/05/12 01:21:00;;;;;;;8.50;4.90;;;14.00;99.90;;;;;;5016594;28;20437;-60
2022/05/12 01:23:30;;;;;;;7.13;4.60;;;14.10;99.90;;;;;;5016284;28;20465;-60
2022/05/12 01:26:00;;;;;;;7.40;4.30;;;14.10;99.90;;;;;;5016383;28;20422;-60
2022/05/12 01:28:28;;;;;;;6.67;5.30;;;14.10;99.90;;;;;;5016368;28;20430;-60
2022/05/12 01:30:55;;;;;;;5.93;4.73;;;14.10;99.90;;;;;;5015854;28;20954;-60
2022/05/12 01:33:23;;;;;;;4.20;3.70;;;14.20;99.90;;;;;;5016063;28;20822;-59
2022/05/12 01:35:51;;;;;;;4.60;4.00;;;14.20;99.90;;;;;;5015794;28;20503;-60
2022/05/12 01:38:18;;;;;;;9.73;3.47;;;14.30;99.90;;;;;;5015367;28;20449;-60
2022/05/12 01:40:47;;;;;;;5.77;3.73;;;14.30;99.90;;;;;;5015666;28;20946;-60
2022/05/12 01:43:15;;;;;;;5.53;3.60;;;14.30;99.90;;;;;;5015811;28;20461;-60
2022/05/12 01:45:43;;;;;;;7.20;3.70;;;14.30;99.90;;;;;;5015789;28;20454;-60
2022/05/12 01:48:13;;;;;;;4.60;3.53;;;14.30;99.90;;;;;;5015396;28;20450;-59
2022/05/12 01:50:42;;;;;;;5.37;3.63;;;14.30;99.90;;;;;;5015718;28;20434;-60
2022/05/12 01:53:10;;;;;;;3.63;3.20;;;14.30;99.90;;;;;;5015305;28;20849;-60
2022/05/12 01:55:39;;;;;;;8.07;2.60;;;14.30;99.90;;;;;;5015625;28;20570;-61
2022/05/12 01:58:08;;;;;;;4.20;3.20;;;14.30;99.90;;;;;;5015274;28;20942;-60
2022/05/12 02:00:37;;;;;;;4.57;3.03;;;14.20;99.90;;;;;;5015404;28;20450;-60
2022/05/12 02:03:04;;;;;;;3.60;3.00;;;14.20;99.90;;;;;;5015649;28;20466;-60
2022/05/12 02:05:33;;;;;;;3.53;2.97;;;14.20;99.90;;;;;;5015208;28;20830;-60
2022/05/12 02:08:01;;;;;;;2.93;2.47;;;14.20;99.90;;;;;;5015215;28;20442;-60
2022/05/12 02:10:37;;;;;;;3.07;2.27;;;14.20;99.90;;;;;;5015210;28;20457;-60
2022/05/12 02:13:05;;;;;;;3.80;2.10;;;14.30;99.90;;;;;;5015126;28;20496;-60
2022/05/12 02:15:34;;;;;;;6.20;2.23;;;14.30;99.90;;;;;;5015402;28;20492;-60
2022/05/12 02:18:01;;;;;;;4.70;2.57;;;14.20;99.90;;;;;;5015339;28;20518;-60
2022/05/12 02:20:28;;;;;;;2.03;1.83;;;14.20;99.90;;;;;;5015498;28;20441;-60
2022/05/12 02:22:55;;;;;;;4.83;2.20;;;14.10;99.90;;;;;;5014933;28;20474;-61
2022/05/12 02:25:23;;;;;;;3.37;1.50;;;14.00;99.90;;;;;;5015210;28;20442;-61
2022/05/12 02:27:51;;;;;;;2.50;1.50;;;13.90;99.90;;;;;;5015207;28;20473;-61
2022/05/12 02:30:22;;;;;;;3.20;1.70;;;13.80;99.90;;;;;;5015127;28;20465;-61
2022/05/12 02:32:50;;;;;;;3.37;1.40;;;13.70;99.90;;;;;;5014856;28;21000;-61
2022/05/12 02:35:18;;;;;;;2.90;1.60;;;13.60;99.90;;;;;;5014987;28;20489;-61
2022/05/12 02:37:46;;;;;;;4.00;1.60;;;13.50;99.90;;;;;;5014943;28;20946;-61
2022/05/12 02:40:17;;;;;;;4.03;1.67;;;13.50;99.90;;;;;;5014873;28;20961;-60
2022/05/12 02:42:44;;;;;;;3.13;1.30;;;13.40;99.90;;;;;;5014803;28;20982;-60
2022/05/12 02:45:12;;;;;;;2.77;1.60;;;13.40;99.90;;;;;;5014800;28;20445;-60
2022/05/12 02:47:40;;;;;;;2.83;1.67;;;13.30;99.90;;;;;;5014148;28;20933;-60
2022/05/12 02:50:09;;;;;;;3.97;1.43;;;13.20;99.90;;;;;;5014049;28;20457;-60
2022/05/12 02:52:37;;;;;;;2.90;1.50;;;13.20;99.90;;;;;;5014579;28;20477;-60
2022/05/12 02:55:04;;;;;;;3.23;1.60;;;13.20;99.90;;;;;;5014214;28;20509;-60
2022/05/12 02:57:32;;;;;;;1.90;1.63;;;13.10;99.90;;;;;;5014567;28;20456;-60
2022/05/12 02:59:59;;;;;;;2.90;1.30;;;13.10;99.90;;;;;;5014435;28;20445;-60
2022/05/12 03:02:26;;;;;;;2.90;1.50;;;13.10;99.90;;;;;;5014138;28;20815;-60
2022/05/12 03:04:53;;;;;;;3.93;1.70;;;13.00;99.90;;;;;;5014322;28;20943;-61
2022/05/12 03:07:21;;;;;;;5.10;2.67;;;13.00;99.90;;;;;;5014339;28;20449;-60
2022/05/12 03:09:48;;;;;;;5.77;1.90;;;13.00;99.90;;;;;;5014469;28;20452;-60
2022/05/12 03:12:16;;;;;;;4.40;1.70;;;12.90;99.90;;;;;;5014528;28;20446;-60
2022/05/12 03:14:43;;;;;;;2.30;1.47;;;12.90;99.90;;;;;;5013941;28;20485;-60
2022/05/12 03:17:10;;;;;;;1.73;1.40;;;12.80;99.70;;;;;;5014072;28;20453;-61
2022/05/12 03:19:37;;;;;;;3.13;2.00;;;12.80;99.50;;;;;;5014508;28;20791;-61
2022/05/12 03:22:04;;;;;;;3.67;1.73;;;12.70;99.60;;;;;;5013973;28;20457;-60
2022/05/12 03:24:33;;;;;;;2.90;1.27;;;12.70;99.40;;;;;;5014539;28;20562;-60
2022/05/12 03:27:00;;;;;;;7.60;1.63;;;12.60;99.30;;;;;;5014648;28;20450;-61
2022/05/12 03:29:27;;;;;;;1.30;1.00;;;12.50;99.30;;;;;;5014162;28;20445;-61
2022/05/12 03:31:54;;;;;;;5.33;1.87;;;12.40;99.40;;;;;;5014192;28;20457;-61
2022/05/12 03:34:21;;;;;;;3.30;1.57;;;12.40;99.70;;;;;;5013970;28;20469;-60
2022/05/12 03:36:48;;;;;;;2.70;1.40;;;12.30;99.80;;;;;;5013571;28;20477;-61
2022/05/12 03:39:15;;;;;;;4.60;1.40;;;12.30;99.90;;;;;;5013964;28;20456;-60
2022/05/12 03:41:44;;;;;;;2.73;1.87;;;12.20;99.90;;;;;;5013952;28;20941;-60
2022/05/12 03:46:55;;;;;;;1.70;1.30;;;12.10;99.90;;;;;;5013728;28;20490;-60
2022/05/12 03:49:22;;;;;;;3.90;1.30;;;12.10;99.90;;;;;;5013654;28;20441;-60
2022/05/12 03:51:49;;;;;;;4.77;1.37;;;12.00;99.90;;;;;;5014032;28;20446;-60
2022/05/12 03:54:16;;;;;;;4.27;1.70;;;12.00;99.90;;;;;;5013702;28;20462;-60
2022/05/12 03:56:45;;;;;;;3.40;1.40;;;12.00;99.90;;;;;;5013727;28;20485;-60
2022/05/12 03:59:12;;;;;;;4.17;1.50;;;11.90;99.90;;;;;;5013350;28;20446;-60
2022/05/12 04:01:39;;;;;;;3.10;1.40;;;11.90;99.90;;;;;;5013233;28;20988;-60
2022/05/12 04:04:06;;;;;;;2.80;1.37;;;11.90;99.90;;;;;;5013465;28;20473;-60
2022/05/12 04:09:44;;;;;;;4.17;2.07;;;11.90;99.90;;;;;;5090707;27;20549;-60
2022/05/12 04:12:11;;;;;;;3.70;1.50;;;11.90;99.90;;;;;;5090364;28;20789;-58
2022/05/12 04:14:39;;;;;;;3.87;1.90;;;11.90;99.90;;;;;;5090368;28;20475;-60
2022/05/12 04:17:06;;;;;;;3.17;1.60;;;11.90;99.90;;;;;;5090904;28;20962;-60
2022/05/12 04:19:33;;;;;;;2.80;1.70;;;11.90;99.90;;;;;;5090801;28;20442;-60
2022/05/12 04:22:00;;;;;;;2.30;1.50;;;11.80;99.90;;;;;;5090741;28;20446;-60
2022/05/12 04:24:27;;;;;;;7.70;1.83;;;11.90;99.90;;;;;;5090418;28;20587;-60
2022/05/12 04:26:56;;;;;;;3.83;1.90;;;11.90;99.90;;;;;;5090385;28;20446;-60
2022/05/12 04:29:23;;;;;;;2.63;1.40;;;11.90;99.90;;;;;;5089943;28;20474;-60
2022/05/12 04:31:50;;;;;;;1.97;1.63;;;12.00;99.90;;;;;;5090260;28;20462;-60
2022/05/12 04:37:03;;;;;;;3.03;1.67;;;12.30;99.90;;;;;;5089923;28;20826;-61
2022/05/12 04:39:30;;;;;;;3.33;1.40;;;12.50;99.90;;;;;;5089586;28;20435;-61
2022/05/12 04:41:58;;;;;;;2.57;1.30;;;12.80;99.90;;;;;;5089969;28;20763;-60
2022/05/12 04:44:26;;;;;;;2.53;1.43;;;13.10;99.90;;;;;;5089820;28;20461;-61
2022/05/12 04:46:53;;;;;;;3.30;1.63;;;13.30;99.50;;;;;;5089729;28;20504;-61
2022/05/12 04:49:20;;;;;;;2.83;1.73;;;13.50;98.60;;;;;;5089525;28;20477;-61
2022/05/12 04:51:47;;;;;;;4.07;1.80;;;13.50;97.80;;;;;;5089292;28;20454;-59
2022/05/12 04:54:14;;;;;;;3.40;1.40;;;13.70;97.60;;;;;;5089518;28;20466;-60
2022/05/12 04:56:42;;;;;;;3.27;1.40;;;13.80;96.90;;;;;;5089576;28;20787;-60
2022/05/12 04:59:12;;;;;;;5.77;2.00;;;13.90;96.30;;;;;;5089577;28;20445;-61
2022/05/12 05:01:39;;;;;;;3.40;1.70;;;14.00;95.90;;;;;;5089595;28;20450;-60
2022/05/12 05:04:06;;;;;;;4.77;1.50;;;14.20;95.80;;;;;;5089736;28;20462;-60
2022/05/12 05:06:34;;;;;;;6.50;1.70;;;14.30;94.30;;;;;;5089354;28;20792;-58
2022/05/12 05:09:02;;;;;;;3.70;1.60;;;14.30;93.00;;;;;;5089181;28;20802;-59
2022/05/12 05:11:29;;;;;;;3.30;1.33;;;14.20;93.20;;;;;;5089329;28;20442;-59
2022/05/12 05:13:56;;;;;;;3.37;1.20;;;14.30;93.80;;;;;;5089136;28;21037;-59
2022/05/12 05:16:25;;;;;;;3.40;1.30;;;14.40;92.70;;;;;;5089165;28;20423;-59
2022/05/12 05:18:52;;;;;;;2.53;1.20;;;14.40;92.10;;;;;;5088511;28;20950;-58
2022/05/12 05:21:19;;;;;;;5.20;1.30;;;14.40;92.20;;;;;;5074940;28;20439;-59
2022/05/12 05:23:47;;;;;;;1.97;1.27;;;14.40;91.20;;;;;;5075502;28;20501;-59
2022/05/12 05:26:14;;;;;;;3.80;1.20;;;14.40;90.80;;;;;;5075435;28;20489;-59
2022/05/12 05:28:41;;;;;;;1.87;1.23;;;14.40;90.80;;;;;;5075550;28;20479;-59
2022/05/12 05:31:09;;;;;;;4.43;1.40;;;14.40;90.90;;;;;;5076270;28;20443;-59
2022/05/12 05:33:37;;;;;;;2.20;1.00;;;14.40;90.70;;;;;;5075312;28;20467;-57
2022/05/12 05:36:05;;;;;;;1.73;1.50;;;14.40;90.10;;;;;;5075606;28;20443;-59
2022/05/12 05:38:32;;;;;;;3.03;1.10;;;14.40;89.20;;;;;;5075767;28;20503;-59
2022/05/12 05:40:59;;;;;;;2.40;1.33;;;14.30;89.60;;;;;;5076356;28;20447;-59
2022/05/12 05:43:28;;;;;;;3.33;1.43;;;14.20;89.20;;;;;;5075913;28;20899;-60
2022/05/12 05:45:56;;;;;;;3.13;1.30;;;14.10;89.20;;;;;;5076250;28;20439;-59
2022/05/12 05:48:23;;;;;;;4.40;1.73;;;14.10;89.10;;;;;;5075494;28;20572;-59
2022/05/12 05:53:38;;;;;;;2.60;1.30;;;14.00;89.60;;;;;;5075170;28;20931;-59
2022/05/12 05:56:09;;;;;;;3.97;1.70;;;13.90;88.80;;;;;;5074973;28;20447;-59
2022/05/12 05:58:39;;;;;;;2.70;1.47;;;13.90;89.60;;;;;;5075359;28;20440;-61
2022/05/12 06:01:07;;;;;;;2.87;1.40;;;13.90;89.70;;;;;;5074695;28;20529;-59
2022/05/12 06:03:34;;;;;;;2.70;1.43;;;13.90;89.80;;;;;;5074447;28;20505;-60
2022/05/12 06:06:02;;;;;;;3.80;1.97;;;13.80;88.90;;;;;;5074697;28;20475;-60
2022/05/12 06:08:30;;;;;;;2.20;1.30;;;13.70;89.20;;;;;;5074684;28;20486;-60
2022/05/12 06:10:59;;;;;;;3.13;1.30;;;13.60;89.80;;;;;;5074747;28;20951;-60
2022/05/12 06:13:26;;;;;;;6.53;1.70;;;13.60;90.10;;;;;;5088779;22;20496;-59
2022/05/12 06:15:53;;;;;;;3.30;1.97;;;13.70;90.10;;;;;;5034529;28;20441;-60
2022/05/12 06:18:20;;;;;;;3.33;1.50;;;13.70;90.10;;;;;;5035083;28;20536;-60
2022/05/12 06:20:50;;;;;;;3.83;1.63;;;13.80;89.90;;;;;;5035053;28;20444;-60
2022/05/12 06:23:19;;;;;;;2.70;1.50;;;13.80;89.50;;;;;;5033855;28;20830;-60
2022/05/12 06:25:47;;;;;;;1.63;1.40;;;13.90;89.20;;;;;;5034568;28;20440;-61
2022/05/12 06:28:14;;;;;;;2.20;1.60;;;14.00;89.30;;;;;;5034395;28;20966;-61
2022/05/12 06:30:41;;;;;;;2.33;1.60;;;13.90;89.50;;;;;;5034293;28;20449;-61
2022/05/12 06:33:15;;;;;;;5.43;1.60;;;13.80;89.70;;;;;;5034013;28;20465;-60
2022/05/12 06:35:43;;;;;;;2.30;1.90;;;13.80;90.20;;;;;;5034475;28;20536;-60
2022/05/12 06:38:11;;;;;;;2.50;1.70;;;13.90;90.30;;;;;;5034135;28;20999;-60
2022/05/12 06:40:40;;;;;;;2.97;1.97;;;14.00;90.10;;;;;;5034152;28;20888;-60
2022/05/12 06:43:09;;;;;;;1.93;1.47;;;14.10;89.70;;;;;;5033636;28;20469;-59
2022/05/12 06:45:36;;;;;;;2.80;1.80;;;14.10;89.50;;;;;;5031554;28;20452;-59
2022/05/12 06:48:04;;;;;;;2.57;1.60;;;14.00;89.80;;;;;;5033958;28;20623;-61
2022/05/12 06:50:32;;;;;;;4.70;1.80;;;14.10;90.10;;;;;;5034449;28;20802;-61
2022/05/12 06:52:59;;;;;;;4.63;1.80;;;14.20;90.00;;;;;;5033765;28;20469;-61
2022/05/12 06:55:27;;;;;;;3.87;1.97;;;14.20;89.30;;;;;;5033577;28;20460;-61
2022/05/12 06:57:55;;;;;;;5.60;1.90;;;14.30;89.20;;;;;;5032920;28;20445;-61
2022/05/12 07:00:23;;;;;;;3.97;1.90;;;14.40;88.80;;;;;;5033340;28;20553;-61
2022/05/12 07:02:52;;;;;;;2.43;1.50;;;14.50;87.60;;;;;;5033921;28;20468;-61
2022/05/12 07:05:21;;;;;;;2.70;1.50;;;14.50;87.10;;;;;;5034633;28;20981;-61
2022/05/12 07:07:48;;;;;;;4.57;2.03;;;14.50;87.30;;;;;;5035096;28;20956;-60
2022/05/12 07:10:17;;;;;;;3.70;1.93;;;14.60;87.30;;;;;;5034500;28;20484;-61
2022/05/12 07:12:44;;;;;;;3.63;2.00;;;14.60;86.80;;;;;;5033336;28;20489;-62
2022/05/12 07:15:14;;;;;;;2.87;1.80;;;14.70;87.00;;;;;;5034239;28;20498;-60
2022/05/12 07:17:43;;;;;;;4.83;1.80;;;14.80;86.40;;;;;;5033230;28;20449;-60
2022/05/12 07:28:27;;;;;;;2.87;1.93;;;15.60;80.40;;;;;;5035514;28;20409;-60
2022/05/12 07:31:01;;;;;;;3.43;1.53;;;15.60;79.90;;;;;;5035931;28;20460;-61
2022/05/12 07:33:29;;;;;;;3.83;2.07;;;15.60;79.40;;;;;;5037680;28;20479;-60
2022/05/12 07:35:56;;;;;;;5.33;2.13;;;15.50;79.30;;;;;;5036445;28;20460;-60
2022/05/12 07:38:23;;;;;;;5.40;2.20;;;15.50;79.50;;;;;;5032810;28;20452;-61
2022/05/12 07:40:51;;;;;;;5.25;2.08;;;15.70;80.40;;;;;;5032783;28;20382;-61
2022/05/12 07:43:18;;;;;;;5.20;2.70;;;15.80;79.20;;;;;;5013298;28;20477;-61
2022/05/12 07:45:45;;;;;;;6.23;2.33;;;16.00;78.30;;;;;;5018252;28;20456;-61
2022/05/12 07:48:14;;;;;;;3.73;1.73;;;16.20;75.60;;;;;;5033031;28;20457;-60
2022/05/12 07:50:41;;;;;;;2.60;1.73;;;16.30;74.40;;;;;;5031653;28;20488;-61
2022/05/12 07:53:09;;;;;;;4.47;2.80;;;16.30;73.20;;;;;;5032798;28;20468;-60
2022/05/12 07:55:37;;;;;;;2.77;1.70;;;16.40;72.60;;;;;;5033242;28;20479;-61
2022/05/12 07:58:05;;;;;;;6.03;1.80;;;16.40;70.50;;;;;;5032066;28;20540;-61
2022/05/12 08:00:33;;;;;;;5.57;2.20;;;16.40;70.50;;;;;;5033333;28;20441;-59
2022/05/12 08:03:00;;;;;;;3.33;2.33;;;16.40;69.90;;;;;;5032758;28;20491;-60
2022/05/12 08:05:29;;;;;;;3.17;2.10;;;16.60;69.80;;;;;;5031967;28;20472;-61
2022/05/12 08:07:56;;;;;;;2.03;1.63;;;16.80;69.20;;;;;;5033191;28;20460;-60
2022/05/12 08:10:24;;;;;;;3.13;1.80;;;16.90;68.20;;;;;;5032415;28;20508;-61
2022/05/12 08:12:51;;;;;;;3.70;1.73;;;17.00;67.30;;;;;;5031874;28;20572;-62
2022/05/12 08:15:19;;;;;;;3.10;1.43;;;17.00;66.00;;;;;;5032366;28;20429;-61
2022/05/12 08:17:46;;;;;;;2.80;1.50;;;16.80;64.70;;;;;;5032498;28;20781;-61
2022/05/12 08:20:14;;;;;;;2.57;1.60;;;16.60;64.80;;;;;;5031771;28;20441;-61
2022/05/12 08:22:43;;;;;;;3.00;1.70;;;16.50;65.20;;;;;;5032252;28;20475;-60
2022/05/12 08:25:10;;;;;;;4.43;2.43;;;16.60;65.20;;;;;;5032759;28;20968;-61
2022/05/12 08:27:38;;;;;;;2.27;1.50;;;16.60;65.00;;;;;;5033025;28;20520;-61
2022/05/12 08:30:09;;;;;;;4.87;1.73;;;16.50;65.20;;;;;;5031339;28;20484;-62
2022/05/12 08:32:36;;;;;;;3.47;1.50;;;16.50;65.60;;;;;;5033690;28;20464;-60
2022/05/12 08:35:04;;;;;;;3.37;1.80;;;16.60;65.20;;;;;;5033194;28;20980;-61
2022/05/12 08:37:31;;;;;;;3.07;1.70;;;16.70;64.80;;;;;;5033841;28;20471;-60
2022/05/12 08:40:00;;;;;;;4.63;1.50;;;16.80;63.90;;;;;;5032809;28;20452;-61
2022/05/12 08:42:31;;;;;;;3.20;1.60;;;16.70;63.10;;;;;;5032503;28;20451;-60
2022/05/12 08:44:59;;;;;;;3.93;1.43;;;16.60;62.90;;;;;;5032468;28;20658;-60
2022/05/12 08:47:31;;;;;;;3.20;1.43;;;16.70;62.60;;;;;;5031223;28;20933;-60
2022/05/12 08:49:59;;;;;;;4.63;1.67;;;16.80;61.70;;;;;;5032144;28;20461;-61
2022/05/12 08:52:31;;;;;;;11.53;1.60;;;16.90;60.80;;;;;;5032556;28;20476;-59
2022/05/12 08:55:10;;;;;;;2.30;1.70;;;17.00;60.30;;;;;;5033333;28;20445;-62
2022/05/12 08:57:42;;;;;;;7.90;1.53;;;17.20;59.10;;;;;;5036465;28;20432;-61
2022/05/12 09:00:15;;;;;;;4.00;1.73;;;17.30;58.80;;;;;;5035925;28;20440;-61
2022/05/12 09:02:54;;;;;;;5.63;1.40;;;17.40;58.40;;;;;;5034516;28;20552;-62
2022/05/12 09:05:28;;;;;;;3.80;1.20;;;17.60;58.20;;;;;;5035527;28;20425;-61
2022/05/12 09:08:05;;;;;;;4.10;1.63;;;17.80;57.50;;;;;;5036323;28;20436;-61
2022/05/12 09:10:48;;;;;;;2.93;1.37;;;17.80;55.80;;;;;;5035243;28;20999;-60
2022/05/12 09:13:22;;;;;;;2.20;1.57;;;17.90;55.10;;;;;;5035418;28;20476;-61
2022/05/12 09:15:57;;;;;;;2.80;1.40;;;17.90;54.80;;;;;;5034679;28;20453;-61
2022/05/12 09:18:31;;;;;;;3.20;1.67;;;18.00;54.70;;;;;;5035442;28;20438;-61
2022/05/12 09:21:02;;;;;;;3.47;1.43;;;18.10;54.90;;;;;;5035621;28;20849;-60
2022/05/12 09:23:29;;;;;;;3.33;2.17;;;18.00;55.20;;;;;;5035183;28;20472;-61
2022/05/12 09:25:57;;;;;;;4.20;1.57;;;18.00;54.80;;;;;;5035358;28;20451;-61
2022/05/12 09:28:33;;;;;;;2.47;1.47;;;18.00;54.30;;;;;;5035181;28;20449;-60
2022/05/12 09:31:17;;;;;;;5.30;1.63;;;18.10;53.90;;;;;;5035292;28;21006;-61
2022/05/12 09:33:46;;;;;;;3.43;1.47;;;18.20;53.50;;;;;;5035705;28;20460;-62
2022/05/12 09:36:17;;;;;;;2.23;1.23;;;18.30;53.10;;;;;;5043798;28;20449;-61
2022/05/12 09:38:48;;;;;;;1.83;1.23;;;18.30;52.20;;;;;;5043254;28;20430;-62
2022/05/12 09:41:20;;;;;;;5.17;2.07;;;18.30;50.80;;;;;;5046849;28;20783;-60
2022/05/12 09:43:50;;;;;;;3.07;1.90;;;18.20;50.60;;;;;;5042883;28;20473;-62
2022/05/12 09:46:26;;;;;;;3.37;1.83;;;18.10;51.30;;;;;;5044843;28;20989;-61
2022/05/12 09:48:53;;;;;;;2.83;2.00;;;18.10;51.60;;;;;;5043487;28;20429;-61
2022/05/12 09:51:33;;;;;;;4.83;2.00;;;18.00;51.90;;;;;;5045119;28;20480;-60
2022/05/12 09:54:23;;;;;;;5.33;1.50;;;17.90;52.30;;;;;;5043314;28;20492;-61
2022/05/12 09:57:01;;;;;;;5.67;2.17;;;18.10;52.50;;;;;;5043028;28;20524;-61
2022/05/12 09:59:30;;;;;;;3.70;1.87;;;18.30;52.00;;;;;;5038926;28;20460;-60
2022/05/12 10:01:59;;;;;;;3.57;2.03;;;18.30;51.00;;;;;;5038493;28;20472;-61
2022/05/12 10:10:12;;;;;;;7.23;1.93;;;18.00;50.30;;;;;;5035920;28;20456;-60
2022/05/12 10:12:50;;;;;;;5.73;1.70;;;17.80;50.70;;;;;;5035301;28;20983;-61
2022/05/12 10:15:26;;;;;;;2.23;1.40;;;17.80;51.10;;;;;;5034962;28;20523;-61
2022/05/12 10:17:58;;;;;;;1.80;1.50;;;18.00;50.90;;;;;;5034262;28;20960;-61
2022/05/12 10:20:27;;;;;;;3.33;1.30;;;18.00;50.60;;;;;;5034825;28;20429;-60
2022/05/12 10:23:00;;;;;;;1.67;1.47;;;18.20;50.50;;;;;;5034763;28;20559;-60
2022/05/12 10:25:58;;;;;;;2.70;1.70;;;18.30;50.10;;;;;;5034534;28;20540;-62
2022/05/12 10:28:38;;;;;;;2.17;1.73;;;18.30;50.20;;;;;;5034239;28;20520;-60
2022/05/12 10:31:15;;;;;;;2.03;1.40;;;18.40;49.00;;;;;;5034072;28;20465;-60
2022/05/12 10:33:53;;;;;;;2.10;1.50;;;18.40;48.50;;;;;;5033495;28;20999;-62
2022/05/12 10:36:34;;;;;;;3.50;1.77;;;18.30;48.80;;;;;;5028865;28;20451;-62
2022/05/12 10:39:12;;;;;;;3.90;1.40;;;18.20;49.40;;;;;;5034270;28;20436;-62
2022/05/12 10:41:45;;;;;;;2.77;1.37;;;18.00;49.50;;;;;;5035094;28;20421;-64
2022/05/12 10:44:28;;;;;;;3.15;1.70;;;18.00;49.50;;;;;;5032482;28;20441;-61
2022/05/12 10:47:00;;;;;;;3.20;1.80;;;18.30;49.30;;;;;;5034809;28;20186;-63
2022/05/12 10:49:37;;;;;;;4.33;1.70;;;18.50;48.80;;;;;;5034000;28;20437;-62
2022/05/12 10:52:15;;;;;;;3.43;1.50;;;18.80;48.30;;;;;;5033695;28;20444;-62
2022/05/12 10:54:53;;;;;;;1.77;1.50;;;19.00;47.70;;;;;;5034152;28;20436;-63
2022/05/12 10:57:31;;;;;;;1.40;1.20;;;19.20;47.20;;;;;;5033977;28;20803;-61
2022/05/12 11:00:18;;;;;;;3.20;1.60;;;19.30;46.70;;;;;;5033386;28;20442;-62
2022/05/12 11:02:51;;;;;;;1.30;1.20;;;19.40;46.30;;;;;;5034486;28;20956;-63
2022/05/12 11:05:30;;;;;;;2.03;1.30;;;19.50;45.80;;;;;;5034141;28;20818;-63
2022/05/12 11:08:04;;;;;;;2.60;1.40;;;19.60;45.20;;;;;;5033307;28;20947;-63
2022/05/12 11:10:37;;;;;;;3.27;1.40;;;19.70;45.10;;;;;;5037892;28;20507;-61
2022/05/12 11:13:11;;;;;;;2.30;1.43;;;19.60;45.20;;;;;;5038391;28;20468;-62
2022/05/12 11:15:50;;;;;;;2.58;1.10;;;19.70;45.10;;;;;;5037802;28;20449;-60
2022/05/12 11:18:25;;;;;;;1.00;0.90;;;19.60;44.10;;;;;;5039130;28;20187;-61
2022/05/12 11:21:00;;;;;;;2.57;1.50;;;19.30;43.30;;;;;;5040328;28;20417;-60
2022/05/12 11:23:41;;;;;;;2.90;1.50;;;19.00;43.70;;;;;;5038067;28;20555;-60
2022/05/12 11:26:15;;;;;;;3.50;1.87;;;18.80;44.50;;;;;;5039696;28;20430;-60
2022/05/12 11:31:43;;;;;;;2.10;1.23;;;19.10;44.30;;;;;;5042700;28;20891;-60
2022/05/12 11:34:15;;;;;;;3.83;1.57;;;19.40;44.30;;;;;;5037909;28;20479;-59
2022/05/12 11:36:44;;;;;;;2.10;1.20;;;19.80;43.50;;;;;;5036512;28;20444;-60
2022/05/12 11:39:31;;;;;;;2.70;1.27;;;20.00;42.90;;;;;;5036080;28;20453;-60
2022/05/12 11:42:16;;;;;;;2.03;1.30;;;20.10;42.50;;;;;;5034928;28;20441;-60
2022/05/12 11:44:55;;;;;;;1.73;1.20;;;20.00;42.50;;;;;;5033399;28;20528;-61
2022/05/12 11:47:48;;;;;;;3.65;1.27;;;20.40;42.60;;;;;;5033003;28;20440;-59
2022/05/12 11:50:43;;;;;;;2.17;1.10;;;21.00;41.80;;;;;;5034482;28;20242;-60
2022/05/12 11:53:16;;;;;;;2.03;1.10;;;21.90;40.60;;;;;;5028298;28;20492;-63
2022/05/12 11:56:04;;;;;;;2.53;1.10;;;22.90;38.40;;;;;;5033017;28;20439;-59
2022/05/12 11:58:39;;;;;;;3.27;1.17;;;23.40;36.90;;;;;;5033601;28;20452;-60
2022/05/12 12:01:09;;;;;;;1.80;1.27;;;23.60;35.30;;;;;;5035152;28;20483;-60
2022/05/12 12:03:59;;;;;;;3.60;1.40;;;23.40;35.10;;;;;;5034691;28;20460;-61
2022/05/12 12:06:51;;;;;;;2.50;1.23;;;23.50;35.20;;;;;;5033255;28;20433;-60
2022/05/12 12:09:52;;;;;;;2.80;1.40;;;23.30;35.50;;;;;;5034415;28;20440;-59
2022/05/12 12:12:50;;;;;;;1.97;0.93;;;23.20;35.60;;;;;;5034297;28;20444;-60
2022/05/12 12:15:57;;;;;;;1.40;0.93;;;23.20;35.10;;;;;;5012877;22;20493;-59
2022/05/12 12:18:47;;;;;;;2.40;1.33;;;23.40;34.70;;;;;;5012559;28;20449;-59
2022/05/12 12:22:07;;;;;;;3.27;1.43;;;23.90;34.40;;;;;;5012408;28;20426;-59
2022/05/12 12:25:02;;;;;;;2.43;1.17;;;24.20;33.90;;;;;;5014301;28;20449;-59
2022/05/12 12:28:10;;;;;;;1.97;1.10;;;24.10;34.00;;;;;;5032382;28;20421;-59
2022/05/12 12:31:07;;;;;;;3.03;1.40;;;23.70;34.20;;;;;;5034346;28;20469;-60
2022/05/12 12:33:58;;;;;;;2.90;1.10;;;23.10;33.80;;;;;;5036322;28;20964;-59
2022/05/12 12:37:05;;;;;;;2.83;1.63;;;22.60;34.40;;;;;;5035988;28;20468;-60
2022/05/12 12:39:45;;;;;;;4.40;1.30;;;22.50;35.10;;;;;;5036069;28;20507;-59
2022/05/12 12:42:30;;;;;;;2.70;1.40;;;22.60;35.30;;;;;;5035942;28;20496;-58
2022/05/12 12:45:00;;;;;;;4.00;1.70;;;22.30;35.50;;;;;;5035988;28;20496;-60
2022/05/12 12:47:38;;;;;;;2.90;1.70;;;22.10;36.10;;;;;;5036249;28;20447;-58
2022/05/12 12:50:15;;;;;;;2.93;1.70;;;21.80;36.80;;;;;;5035581;28;20490;-60
2022/05/12 12:52:43;;;;;;;2.73;1.63;;;21.50;37.50;;;;;;5036208;28;20792;-60
2022/05/12 12:58:06;;;;;;;1.97;1.40;;;21.30;38.20;;;;;;5036364;28;20559;-61
2022/05/12 13:00:35;;;;;;;2.57;1.70;;;21.30;38.30;;;;;;5036196;28;20437;-60
2022/05/12 13:03:06;;;;;;;2.80;1.50;;;21.50;38.30;;;;;;5035661;28;20484;-59
2022/05/12 13:05:36;;;;;;;2.40;1.60;;;21.60;38.10;;;;;;5035600;28;20465;-58
2022/05/12 13:08:05;;;;;;;2.97;1.53;;;21.70;38.10;;;;;;5035603;28;20463;-59
2022/05/12 13:10:45;;;;;;;1.63;1.47;;;22.00;38.10;;;;;;5036123;28;20492;-59
2022/05/12 13:13:12;;;;;;;3.67;1.87;;;22.00;37.60;;;;;;5035933;28;20440;-60
2022/05/12 13:15:43;;;;;;;2.40;1.30;;;21.90;37.60;;;;;;5035603;28;20484;-59
2022/05/12 13:18:18;;;;;;;5.00;1.80;;;21.90;37.80;;;;;;5035558;28;20878;-59
2022/05/12 13:20:46;;;;;;;2.27;1.33;;;21.80;37.80;;;;;;5035850;28;20516;-60
2022/05/12 13:23:20;;;;;;;1.80;1.20;;;21.80;37.50;;;;;;5035872;28;20567;-60
2022/05/12 13:25:49;;;;;;;4.20;1.67;;;21.80;37.40;;;;;;5035774;28;20478;-59
2022/05/12 13:28:22;;;;;;;1.43;1.33;;;21.80;37.00;;;;;;5034992;28;20468;-60
2022/05/12 13:30:51;;;;;;;1.60;1.40;;;21.70;36.90;;;;;;5034901;28;20842;-62
2022/05/12 13:33:23;;;;;;;1.90;1.27;;;21.40;37.10;;;;;;5035383;28;20480;-59
2022/05/12 13:35:59;;;;;;;2.40;1.50;;;21.00;37.50;;;;;;5035879;28;20500;-59
2022/05/12 13:38:29;;;;;;;1.77;1.30;;;20.80;38.10;;;;;;5035464;28;20444;-60